sensor_id;sensor_type;location;lat;lon;timestamp;P1;durP1;ratioP1;P2;durP2;ratioP2
1122;SDS011;548;48.778;9.252;2022-07-29T00:01:33;17.80;;;16.70;;
1122;SDS011;548;48.778;9.252;2022-07-29T00:04:01;18.33;;;17.37;;
1122;SDS011;548;48.778;9.252;2022-07-29T00:06:28;19.60;;;18.60;;
1122;SDS011;548;48.778;9.252;2022-07-29T00:08:54;19.20;;;18.20;;
1122;SDS011;548;48.778;9.252;2022-07-29T00:11:21;18.43;;;17.40;;
1122;SDS011;548;48.778;9.252;2022-07-29T00:13:48;17.77;;;16.77;;
1122;SDS011;548;48.778;9.252;2022-07-29T00:16:14;19.73;;;18.70;;
1122;SDS011;548;48.778;9.252;2022-07-29T00:18:41;20.40;;;19.10;;
1122;SDS011;548;48.778;9.252;2022-07-29T00:21:09;20.33;;;18.93;;
1122;SDS011;548;48.778;9.252;2022-07-29T00:23:36;18.87;;;17.97;;
1122;SDS011;548;48.778;9.252;2022-07-29T00:26:02;19.60;;;18.30;;
1122;SDS011;548;48.778;9.252;2022-07-29T00:28:29;20.33;;;18.87;;
1122;SDS011;548;48.778;9.252;2022-07-29T00:30:56;19.97;;;18.87;;
1122;SDS011;548;48.778;9.252;2022-07-29T00:33:22;20.00;;;18.90;;
1122;SDS011;548;48.778;9.252;2022-07-29T00:35:49;20.50;;;19.40;;
1122;SDS011;548;48.778;9.252;2022-07-29T00:38:16;20.30;;;19.00;;
1122;SDS011;548;48.778;9.252;2022-07-29T00:40:45;21.90;;;20.50;;
1122;SDS011;548;48.778;9.252;2022-07-29T00:43:12;20.83;;;19.30;;
1122;SDS011;548;48.778;9.252;2022-07-29T00:45:40;19.87;;;18.87;;
1122;SDS011;548;48.778;9.252;2022-07-29T00:48:07;22.83;;;21.27;;
1122;SDS011;548;48.778;9.252;2022-07-29T00:50:34;22.47;;;21.07;;
1122;SDS011;548;48.778;9.252;2022-07-29T00:53:02;22.73;;;21.20;;
1122;SDS011;548;48.778;9.252;2022-07-29T00:55:30;21.33;;;19.93;;
1122;SDS011;548;48.778;9.252;2022-07-29T00:57:57;22.30;;;21.00;;
1122;SDS011;548;48.778;9.252;2022-07-29T01:00:26;23.17;;;21.50;;
1122;SDS011;548;48.778;9.252;2022-07-29T01:02:54;21.00;;;19.63;;
1122;SDS011;548;48.778;9.252;2022-07-29T01:05:21;21.40;;;20.20;;
1122;SDS011;548;48.778;9.252;2022-07-29T01:07:51;22.80;;;21.40;;
1122;SDS011;548;48.778;9.252;2022-07-29T01:10:19;22.87;;;21.37;;
1122;SDS011;548;48.778;9.252;2022-07-29T01:12:49;23.83;;;22.13;;
1122;SDS011;548;48.778;9.252;2022-07-29T01:15:17;23.20;;;21.70;;
1122;SDS011;548;48.778;9.252;2022-07-29T01:17:45;22.97;;;21.50;;
1122;SDS011;548;48.778;9.252;2022-07-29T01:20:17;22.43;;;20.93;;
1122;SDS011;548;48.778;9.252;2022-07-29T01:25:54;24.13;;;22.53;;
1122;SDS011;548;48.778;9.252;2022-07-29T01:28:35;22.77;;;21.20;;
1122;SDS011;548;48.778;9.252;2022-07-29T01:31:16;22.37;;;20.70;;
1122;SDS011;548;48.778;9.252;2022-07-29T01:33:45;21.03;;;19.83;;
1122;SDS011;548;48.778;9.252;2022-07-29T01:36:20;21.43;;;20.23;;
1122;SDS011;548;48.778;9.252;2022-07-29T01:38:54;22.87;;;20.80;;
1122;SDS011;548;48.778;9.252;2022-07-29T01:41:28;20.30;;;19.10;;
1122;SDS011;548;48.778;9.252;2022-07-29T01:44:02;20.80;;;19.40;;
1122;SDS011;548;48.778;9.252;2022-07-29T01:46:37;21.37;;;20.07;;
1122;SDS011;548;48.778;9.252;2022-07-29T01:49:08;21.93;;;20.73;;
1122;SDS011;548;48.778;9.252;2022-07-29T01:51:40;23.70;;;21.70;;
1122;SDS011;548;48.778;9.252;2022-07-29T01:54:12;22.83;;;21.60;;
1122;SDS011;548;48.778;9.252;2022-07-29T01:56:43;21.97;;;20.57;;
1122;SDS011;548;48.778;9.252;2022-07-29T01:59:14;21.90;;;20.33;;
1122;SDS011;548;48.778;9.252;2022-07-29T02:01:43;23.27;;;21.80;;
1122;SDS011;548;48.778;9.252;2022-07-29T02:04:12;22.00;;;20.70;;
1122;SDS011;548;48.778;9.252;2022-07-29T02:06:42;22.43;;;21.13;;
1122;SDS011;548;48.778;9.252;2022-07-29T02:09:12;22.03;;;20.17;;
1122;SDS011;548;48.778;9.252;2022-07-29T02:11:41;22.60;;;21.10;;
1122;SDS011;548;48.778;9.252;2022-07-29T02:14:16;22.60;;;21.20;;
1122;SDS011;548;48.778;9.252;2022-07-29T02:16:44;21.60;;;20.10;;
1122;SDS011;548;48.778;9.252;2022-07-29T02:19:13;24.10;;;21.77;;
1122;SDS011;548;48.778;9.252;2022-07-29T02:21:43;22.30;;;20.50;;
1122;SDS011;548;48.778;9.252;2022-07-29T02:24:11;22.43;;;21.13;;
1122;SDS011;548;48.778;9.252;2022-07-29T02:26:40;22.50;;;21.10;;
1122;SDS011;548;48.778;9.252;2022-07-29T02:29:09;20.03;;;18.80;;
1122;SDS011;548;48.778;9.252;2022-07-29T02:31:38;21.87;;;20.47;;
1122;SDS011;548;48.778;9.252;2022-07-29T02:34:08;20.77;;;19.50;;
1122;SDS011;548;48.778;9.252;2022-07-29T02:36:37;21.53;;;20.30;;
1122;SDS011;548;48.778;9.252;2022-07-29T02:39:05;19.97;;;18.77;;
1122;SDS011;548;48.778;9.252;2022-07-29T02:41:37;22.13;;;20.43;;
1122;SDS011;548;48.778;9.252;2022-07-29T02:44:09;20.87;;;19.37;;
1122;SDS011;548;48.778;9.252;2022-07-29T02:46:42;20.33;;;19.23;;
1122;SDS011;548;48.778;9.252;2022-07-29T02:49:15;20.17;;;18.90;;
1122;SDS011;548;48.778;9.252;2022-07-29T02:51:45;20.60;;;19.40;;
1122;SDS011;548;48.778;9.252;2022-07-29T02:54:19;18.67;;;17.77;;
1122;SDS011;548;48.778;9.252;2022-07-29T02:56:49;20.57;;;19.37;;
1122;SDS011;548;48.778;9.252;2022-07-29T02:59:22;23.00;;;21.57;;
1122;SDS011;548;48.778;9.252;2022-07-29T03:01:53;21.17;;;19.87;;
1122;SDS011;548;48.778;9.252;2022-07-29T03:04:22;20.83;;;19.73;;
1122;SDS011;548;48.778;9.252;2022-07-29T03:06:50;22.07;;;20.73;;
1122;SDS011;548;48.778;9.252;2022-07-29T03:09:19;21.00;;;19.80;;
1122;SDS011;548;48.778;9.252;2022-07-29T03:11:46;21.30;;;20.00;;
1122;SDS011;548;48.778;9.252;2022-07-29T03:14:13;22.67;;;21.13;;
1122;SDS011;548;48.778;9.252;2022-07-29T03:16:41;21.80;;;20.40;;
1122;SDS011;548;48.778;9.252;2022-07-29T03:19:09;21.10;;;19.80;;
1122;SDS011;548;48.778;9.252;2022-07-29T03:21:36;23.20;;;21.90;;
1122;SDS011;548;48.778;9.252;2022-07-29T03:24:03;22.40;;;20.90;;
1122;SDS011;548;48.778;9.252;2022-07-29T03:26:30;21.77;;;20.37;;
1122;SDS011;548;48.778;9.252;2022-07-29T03:28:57;21.10;;;20.00;;
1122;SDS011;548;48.778;9.252;2022-07-29T03:31:23;22.57;;;21.07;;
1122;SDS011;548;48.778;9.252;2022-07-29T03:33:50;22.40;;;21.00;;
1122;SDS011;548;48.778;9.252;2022-07-29T03:36:18;21.70;;;20.50;;
1122;SDS011;548;48.778;9.252;2022-07-29T03:38:45;21.33;;;20.13;;
1122;SDS011;548;48.778;9.252;2022-07-29T03:41:13;21.63;;;20.13;;
1122;SDS011;548;48.778;9.252;2022-07-29T03:43:42;22.93;;;21.53;;
1122;SDS011;548;48.778;9.252;2022-07-29T03:46:10;23.37;;;21.77;;
1122;SDS011;548;48.778;9.252;2022-07-29T03:48:40;21.93;;;20.53;;
1122;SDS011;548;48.778;9.252;2022-07-29T03:51:11;23.63;;;21.93;;
1122;SDS011;548;48.778;9.252;2022-07-29T03:53:40;21.80;;;20.60;;
1122;SDS011;548;48.778;9.252;2022-07-29T03:56:07;23.03;;;21.53;;
1122;SDS011;548;48.778;9.252;2022-07-29T03:58:35;22.23;;;21.00;;
1122;SDS011;548;48.778;9.252;2022-07-29T04:01:03;23.70;;;22.00;;
1122;SDS011;548;48.778;9.252;2022-07-29T04:03:30;24.00;;;22.37;;
1122;SDS011;548;48.778;9.252;2022-07-29T04:05:57;24.83;;;23.17;;
1122;SDS011;548;48.778;9.252;2022-07-29T04:08:25;22.77;;;21.57;;
1122;SDS011;548;48.778;9.252;2022-07-29T04:10:53;24.50;;;22.63;;
1122;SDS011;548;48.778;9.252;2022-07-29T04:13:20;24.27;;;22.60;;
1122;SDS011;548;48.778;9.252;2022-07-29T04:15:47;22.87;;;20.97;;
1122;SDS011;548;48.778;9.252;2022-07-29T04:18:14;23.87;;;21.60;;
1122;SDS011;548;48.778;9.252;2022-07-29T04:20:40;23.93;;;21.83;;
1122;SDS011;548;48.778;9.252;2022-07-29T04:23:07;22.57;;;21.10;;
1122;SDS011;548;48.778;9.252;2022-07-29T04:25:36;24.33;;;22.27;;
1122;SDS011;548;48.778;9.252;2022-07-29T04:28:04;22.63;;;21.00;;
1122;SDS011;548;48.778;9.252;2022-07-29T04:30:32;23.97;;;22.30;;
1122;SDS011;548;48.778;9.252;2022-07-29T04:33:00;22.33;;;21.13;;
1122;SDS011;548;48.778;9.252;2022-07-29T04:35:27;22.93;;;21.00;;
1122;SDS011;548;48.778;9.252;2022-07-29T04:37:54;22.47;;;21.27;;
1122;SDS011;548;48.778;9.252;2022-07-29T04:40:21;20.87;;;19.83;;
1122;SDS011;548;48.778;9.252;2022-07-29T04:42:48;21.30;;;20.13;;
1122;SDS011;548;48.778;9.252;2022-07-29T04:45:16;20.57;;;19.47;;
1122;SDS011;548;48.778;9.252;2022-07-29T04:47:43;21.77;;;20.47;;
1122;SDS011;548;48.778;9.252;2022-07-29T04:50:10;19.97;;;18.97;;
1122;SDS011;548;48.778;9.252;2022-07-29T04:52:36;19.80;;;18.70;;
1122;SDS011;548;48.778;9.252;2022-07-29T04:55:04;20.50;;;19.47;;
1122;SDS011;548;48.778;9.252;2022-07-29T04:57:32;20.40;;;18.87;;
1122;SDS011;548;48.778;9.252;2022-07-29T04:59:59;20.23;;;19.10;;
1122;SDS011;548;48.778;9.252;2022-07-29T05:02:27;20.53;;;19.13;;
1122;SDS011;548;48.778;9.252;2022-07-29T05:04:54;20.00;;;18.70;;
1122;SDS011;548;48.778;9.252;2022-07-29T05:07:20;20.33;;;19.03;;
1122;SDS011;548;48.778;9.252;2022-07-29T05:09:47;20.00;;;18.80;;
1122;SDS011;548;48.778;9.252;2022-07-29T05:12:14;20.00;;;18.80;;
1122;SDS011;548;48.778;9.252;2022-07-29T05:14:40;20.20;;;19.00;;
1122;SDS011;548;48.778;9.252;2022-07-29T05:17:07;22.63;;;21.13;;
1122;SDS011;548;48.778;9.252;2022-07-29T05:19:35;22.30;;;20.90;;
1122;SDS011;548;48.778;9.252;2022-07-29T05:22:02;23.10;;;21.70;;
1122;SDS011;548;48.778;9.252;2022-07-29T05:24:28;21.40;;;20.20;;
1122;SDS011;548;48.778;9.252;2022-07-29T05:26:55;19.93;;;18.83;;
1122;SDS011;548;48.778;9.252;2022-07-29T05:29:22;20.77;;;19.47;;
1122;SDS011;548;48.778;9.252;2022-07-29T05:31:48;18.90;;;17.93;;
1122;SDS011;548;48.778;9.252;2022-07-29T05:34:16;19.07;;;18.07;;
1122;SDS011;548;48.778;9.252;2022-07-29T05:36:45;17.23;;;16.13;;
1122;SDS011;548;48.778;9.252;2022-07-29T05:39:12;18.00;;;17.03;;
1122;SDS011;548;48.778;9.252;2022-07-29T05:41:38;18.10;;;17.20;;
1122;SDS011;548;48.778;9.252;2022-07-29T05:44:06;17.83;;;17.00;;
1122;SDS011;548;48.778;9.252;2022-07-29T05:46:32;17.60;;;16.60;;
1122;SDS011;548;48.778;9.252;2022-07-29T05:48:59;16.43;;;15.60;;
1122;SDS011;548;48.778;9.252;2022-07-29T05:51:27;17.33;;;16.10;;
1122;SDS011;548;48.778;9.252;2022-07-29T05:53:56;16.53;;;15.67;;
1122;SDS011;548;48.778;9.252;2022-07-29T05:56:22;16.87;;;15.97;;
1122;SDS011;548;48.778;9.252;2022-07-29T05:58:49;15.63;;;14.90;;
1122;SDS011;548;48.778;9.252;2022-07-29T06:01:16;16.33;;;15.53;;
1122;SDS011;548;48.778;9.252;2022-07-29T06:03:43;17.60;;;16.70;;
1122;SDS011;548;48.778;9.252;2022-07-29T06:06:10;15.90;;;15.17;;
1122;SDS011;548;48.778;9.252;2022-07-29T06:08:37;17.10;;;16.20;;
1122;SDS011;548;48.778;9.252;2022-07-29T06:11:06;16.43;;;15.63;;
1122;SDS011;548;48.778;9.252;2022-07-29T06:13:33;16.40;;;15.43;;
1122;SDS011;548;48.778;9.252;2022-07-29T06:16:00;15.57;;;14.87;;
1122;SDS011;548;48.778;9.252;2022-07-29T06:18:27;15.70;;;14.80;;
1122;SDS011;548;48.778;9.252;2022-07-29T06:20:57;15.60;;;14.90;;
1122;SDS011;548;48.778;9.252;2022-07-29T06:26:39;15.70;;;14.80;;
1122;SDS011;548;48.778;9.252;2022-07-29T06:29:06;15.23;;;14.43;;
1122;SDS011;548;48.778;9.252;2022-07-29T06:31:33;14.60;;;13.80;;
1122;SDS011;548;48.778;9.252;2022-07-29T06:34:00;16.17;;;15.13;;
1122;SDS011;548;48.778;9.252;2022-07-29T06:36:26;14.77;;;13.87;;
1122;SDS011;548;48.778;9.252;2022-07-29T06:38:53;15.40;;;14.63;;
1122;SDS011;548;48.778;9.252;2022-07-29T06:41:20;15.53;;;14.63;;
1122;SDS011;548;48.778;9.252;2022-07-29T06:43:49;16.80;;;16.00;;
1122;SDS011;548;48.778;9.252;2022-07-29T06:46:16;16.03;;;15.33;;
1122;SDS011;548;48.778;9.252;2022-07-29T06:48:43;16.13;;;15.23;;
1122;SDS011;548;48.778;9.252;2022-07-29T06:51:12;14.70;;;14.03;;
1122;SDS011;548;48.778;9.252;2022-07-29T06:53:39;15.23;;;14.53;;
1122;SDS011;548;48.778;9.252;2022-07-29T06:56:06;15.33;;;14.63;;
1122;SDS011;548;48.778;9.252;2022-07-29T06:58:34;15.57;;;14.63;;
1122;SDS011;548;48.778;9.252;2022-07-29T07:01:04;17.57;;;16.27;;
1122;SDS011;548;48.778;9.252;2022-07-29T07:03:31;15.50;;;14.80;;
1122;SDS011;548;48.778;9.252;2022-07-29T07:05:58;14.93;;;14.23;;
1122;SDS011;548;48.778;9.252;2022-07-29T07:08:25;15.43;;;14.70;;
1122;SDS011;548;48.778;9.252;2022-07-29T07:10:52;15.40;;;14.43;;
1122;SDS011;548;48.778;9.252;2022-07-29T07:13:20;15.40;;;14.60;;
1122;SDS011;548;48.778;9.252;2022-07-29T07:15:46;14.67;;;14.00;;
1122;SDS011;548;48.778;9.252;2022-07-29T07:18:15;15.63;;;14.93;;
1122;SDS011;548;48.778;9.252;2022-07-29T07:20:42;15.23;;;14.50;;
1122;SDS011;548;48.778;9.252;2022-07-29T07:23:09;15.10;;;14.30;;
1122;SDS011;548;48.778;9.252;2022-07-29T07:25:36;16.07;;;15.37;;
1122;SDS011;548;48.778;9.252;2022-07-29T07:28:03;17.93;;;16.83;;
1122;SDS011;548;48.778;9.252;2022-07-29T07:30:30;15.80;;;15.00;;
1122;SDS011;548;48.778;9.252;2022-07-29T07:32:57;15.53;;;14.83;;
1122;SDS011;548;48.778;9.252;2022-07-29T07:35:25;14.80;;;14.10;;
1122;SDS011;548;48.778;9.252;2022-07-29T07:37:52;16.33;;;15.33;;
1122;SDS011;548;48.778;9.252;2022-07-29T07:40:19;15.80;;;14.97;;
1122;SDS011;548;48.778;9.252;2022-07-29T07:42:46;17.07;;;16.27;;
1122;SDS011;548;48.778;9.252;2022-07-29T07:45:12;16.50;;;15.50;;
1122;SDS011;548;48.778;9.252;2022-07-29T07:47:39;14.93;;;14.10;;
1122;SDS011;548;48.778;9.252;2022-07-29T07:50:07;15.07;;;14.47;;
1122;SDS011;548;48.778;9.252;2022-07-29T07:52:37;15.50;;;14.63;;
1122;SDS011;548;48.778;9.252;2022-07-29T07:55:12;15.60;;;14.90;;
1122;SDS011;548;48.778;9.252;2022-07-29T07:57:39;16.53;;;15.83;;
1122;SDS011;548;48.778;9.252;2022-07-29T08:00:06;16.47;;;15.60;;
1122;SDS011;548;48.778;9.252;2022-07-29T08:02:33;14.60;;;14.00;;
1122;SDS011;548;48.778;9.252;2022-07-29T08:05:00;14.63;;;13.93;;
1122;SDS011;548;48.778;9.252;2022-07-29T08:07:27;16.23;;;15.23;;
1122;SDS011;548;48.778;9.252;2022-07-29T08:09:55;16.50;;;15.70;;
1122;SDS011;548;48.778;9.252;2022-07-29T08:12:22;15.70;;;15.10;;
1122;SDS011;548;48.778;9.252;2022-07-29T08:14:48;16.57;;;15.77;;
1122;SDS011;548;48.778;9.252;2022-07-29T08:17:15;16.37;;;15.57;;
1122;SDS011;548;48.778;9.252;2022-07-29T08:19:42;15.90;;;15.30;;
1122;SDS011;548;48.778;9.252;2022-07-29T08:22:08;16.10;;;15.30;;
1122;SDS011;548;48.778;9.252;2022-07-29T08:24:35;15.77;;;15.17;;
1122;SDS011;548;48.778;9.252;2022-07-29T08:27:18;16.80;;;16.10;;
1122;SDS011;548;48.778;9.252;2022-07-29T08:29:46;16.83;;;16.00;;
1122;SDS011;548;48.778;9.252;2022-07-29T08:32:13;16.50;;;15.73;;
1122;SDS011;548;48.778;9.252;2022-07-29T08:34:40;16.63;;;15.93;;
1122;SDS011;548;48.778;9.252;2022-07-29T08:37:07;16.97;;;16.07;;
1122;SDS011;548;48.778;9.252;2022-07-29T08:39:33;15.90;;;15.10;;
1122;SDS011;548;48.778;9.252;2022-07-29T08:42:00;15.90;;;15.00;;
1122;SDS011;548;48.778;9.252;2022-07-29T08:44:28;16.60;;;15.80;;
1122;SDS011;548;48.778;9.252;2022-07-29T08:46:55;17.07;;;16.33;;
1122;SDS011;548;48.778;9.252;2022-07-29T08:49:22;17.30;;;16.43;;
1122;SDS011;548;48.778;9.252;2022-07-29T08:51:49;17.33;;;16.43;;
1122;SDS011;548;48.778;9.252;2022-07-29T08:54:17;18.60;;;17.70;;
1122;SDS011;548;48.778;9.252;2022-07-29T08:56:51;18.33;;;17.50;;
1122;SDS011;548;48.778;9.252;2022-07-29T08:59:38;17.17;;;16.37;;
1122;SDS011;548;48.778;9.252;2022-07-29T09:02:09;17.07;;;16.27;;
1122;SDS011;548;48.778;9.252;2022-07-29T09:04:41;17.80;;;17.10;;
1122;SDS011;548;48.778;9.252;2022-07-29T09:07:08;17.63;;;16.77;;
1122;SDS011;548;48.778;9.252;2022-07-29T09:09:35;17.50;;;16.50;;
1122;SDS011;548;48.778;9.252;2022-07-29T09:12:04;17.03;;;16.10;;
1122;SDS011;548;48.778;9.252;2022-07-29T09:14:33;18.23;;;17.07;;
1122;SDS011;548;48.778;9.252;2022-07-29T09:17:01;18.23;;;17.43;;
1122;SDS011;548;48.778;9.252;2022-07-29T09:19:29;17.60;;;16.80;;
1122;SDS011;548;48.778;9.252;2022-07-29T09:21:59;16.90;;;15.90;;
1122;SDS011;548;48.778;9.252;2022-07-29T09:24:39;17.57;;;16.70;;
1122;SDS011;548;48.778;9.252;2022-07-29T09:27:07;18.03;;;16.87;;
1122;SDS011;548;48.778;9.252;2022-07-29T09:29:36;17.10;;;16.07;;
1122;SDS011;548;48.778;9.252;2022-07-29T09:32:08;18.00;;;17.27;;
1122;SDS011;548;48.778;9.252;2022-07-29T09:34:35;19.00;;;18.00;;
1122;SDS011;548;48.778;9.252;2022-07-29T09:37:03;18.50;;;17.80;;
1122;SDS011;548;48.778;9.252;2022-07-29T09:39:31;18.20;;;17.30;;
1122;SDS011;548;48.778;9.252;2022-07-29T09:41:59;18.50;;;17.80;;
1122;SDS011;548;48.778;9.252;2022-07-29T09:44:27;19.80;;;18.53;;
1122;SDS011;548;48.778;9.252;2022-07-29T09:47:08;19.60;;;18.40;;
1122;SDS011;548;48.778;9.252;2022-07-29T09:49:36;18.47;;;17.57;;
1122;SDS011;548;48.778;9.252;2022-07-29T09:52:17;19.27;;;17.83;;
1122;SDS011;548;48.778;9.252;2022-07-29T09:54:44;17.63;;;16.87;;
1122;SDS011;548;48.778;9.252;2022-07-29T09:57:21;18.17;;;17.37;;
1122;SDS011;548;48.778;9.252;2022-07-29T09:59:57;18.77;;;17.63;;
1122;SDS011;548;48.778;9.252;2022-07-29T10:02:31;17.33;;;16.53;;
1122;SDS011;548;48.778;9.252;2022-07-29T10:04:59;19.17;;;18.37;;
1122;SDS011;548;48.778;9.252;2022-07-29T10:07:28;20.90;;;19.70;;
1122;SDS011;548;48.778;9.252;2022-07-29T10:10:10;19.70;;;18.60;;
1122;SDS011;548;48.778;9.252;2022-07-29T10:12:48;18.43;;;17.60;;
1122;SDS011;548;48.778;9.252;2022-07-29T10:15:15;18.87;;;17.97;;
1122;SDS011;548;48.778;9.252;2022-07-29T10:17:43;18.33;;;17.40;;
1122;SDS011;548;48.778;9.252;2022-07-29T10:20:11;18.03;;;17.20;;
1122;SDS011;548;48.778;9.252;2022-07-29T10:22:38;17.73;;;16.73;;
1122;SDS011;548;48.778;9.252;2022-07-29T10:25:05;18.33;;;17.43;;
1122;SDS011;548;48.778;9.252;2022-07-29T10:27:32;18.90;;;17.87;;
1122;SDS011;548;48.778;9.252;2022-07-29T10:30:00;18.80;;;17.80;;
1122;SDS011;548;48.778;9.252;2022-07-29T10:32:33;18.13;;;17.13;;
1122;SDS011;548;48.778;9.252;2022-07-29T10:35:26;19.00;;;17.97;;
1122;SDS011;548;48.778;9.252;2022-07-29T10:38:21;19.13;;;18.30;;
1122;SDS011;548;48.778;9.252;2022-07-29T10:40:57;16.60;;;15.60;;
1122;SDS011;548;48.778;9.252;2022-07-29T10:43:48;17.97;;;17.17;;
1122;SDS011;548;48.778;9.252;2022-07-29T10:46:15;16.10;;;15.40;;
1122;SDS011;548;48.778;9.252;2022-07-29T10:51:53;17.47;;;16.63;;
1122;SDS011;548;48.778;9.252;2022-07-29T10:54:40;19.03;;;18.13;;
1122;SDS011;548;48.778;9.252;2022-07-29T10:57:13;33.57;;;31.77;;
1122;SDS011;548;48.778;9.252;2022-07-29T10:59:41;42.80;;;39.93;;
1122;SDS011;548;48.778;9.252;2022-07-29T11:05:14;55.97;;;51.47;;
1122;SDS011;548;48.778;9.252;2022-07-29T11:10:52;60.60;;;55.87;;
1122;SDS011;548;48.778;9.252;2022-07-29T11:13:46;59.63;;;55.33;;
1122;SDS011;548;48.778;9.252;2022-07-29T11:16:15;51.93;;;48.93;;
1122;SDS011;548;48.778;9.252;2022-07-29T11:21:45;54.60;;;51.00;;
1122;SDS011;548;48.778;9.252;2022-07-29T11:24:14;51.40;;;48.30;;
1122;SDS011;548;48.778;9.252;2022-07-29T11:26:42;52.17;;;48.47;;
1122;SDS011;548;48.778;9.252;2022-07-29T11:29:15;55.87;;;52.20;;
1122;SDS011;548;48.778;9.252;2022-07-29T11:31:46;50.80;;;47.63;;
1122;SDS011;548;48.778;9.252;2022-07-29T11:34:20;47.87;;;44.60;;
1122;SDS011;548;48.778;9.252;2022-07-29T11:39:43;49.20;;;46.40;;
1122;SDS011;548;48.778;9.252;2022-07-29T11:45:08;50.00;;;47.10;;
1122;SDS011;548;48.778;9.252;2022-07-29T11:47:37;46.43;;;43.73;;
1122;SDS011;548;48.778;9.252;2022-07-29T11:50:06;53.07;;;49.77;;
1122;SDS011;548;48.778;9.252;2022-07-29T11:52:35;46.03;;;43.30;;
1122;SDS011;548;48.778;9.252;2022-07-29T11:55:09;43.73;;;41.43;;
1122;SDS011;548;48.778;9.252;2022-07-29T11:57:44;42.70;;;40.20;;
1122;SDS011;548;48.778;9.252;2022-07-29T12:00:12;40.60;;;38.17;;
1122;SDS011;548;48.778;9.252;2022-07-29T12:02:48;44.17;;;41.50;;
1122;SDS011;548;48.778;9.252;2022-07-29T12:05:15;42.80;;;40.27;;
1122;SDS011;548;48.778;9.252;2022-07-29T12:07:43;43.63;;;41.10;;
1122;SDS011;548;48.778;9.252;2022-07-29T12:10:11;43.50;;;41.00;;
1122;SDS011;548;48.778;9.252;2022-07-29T12:12:38;42.33;;;39.97;;
1122;SDS011;548;48.778;9.252;2022-07-29T12:15:11;42.13;;;39.93;;
1122;SDS011;548;48.778;9.252;2022-07-29T12:17:43;38.60;;;36.60;;
1122;SDS011;548;48.778;9.252;2022-07-29T12:20:09;35.00;;;33.30;;
1122;SDS011;548;48.778;9.252;2022-07-29T12:22:38;28.53;;;27.03;;
1122;SDS011;548;48.778;9.252;2022-07-29T12:25:09;24.90;;;23.40;;
1122;SDS011;548;48.778;9.252;2022-07-29T12:27:40;21.27;;;20.10;;
1122;SDS011;548;48.778;9.252;2022-07-29T12:30:08;19.30;;;17.97;;
1122;SDS011;548;48.778;9.252;2022-07-29T12:32:37;15.80;;;15.00;;
1122;SDS011;548;48.778;9.252;2022-07-29T12:35:06;17.20;;;16.40;;
1122;SDS011;548;48.778;9.252;2022-07-29T12:37:34;17.63;;;16.70;;
1122;SDS011;548;48.778;9.252;2022-07-29T12:40:03;15.27;;;14.60;;
1122;SDS011;548;48.778;9.252;2022-07-29T12:42:32;16.20;;;15.40;;
1122;SDS011;548;48.778;9.252;2022-07-29T12:44:59;17.90;;;17.10;;
1122;SDS011;548;48.778;9.252;2022-07-29T12:47:27;17.20;;;16.40;;
1122;SDS011;548;48.778;9.252;2022-07-29T12:50:07;18.57;;;17.37;;
1122;SDS011;548;48.778;9.252;2022-07-29T12:52:35;16.67;;;15.67;;
1122;SDS011;548;48.778;9.252;2022-07-29T12:55:02;17.57;;;16.30;;
1122;SDS011;548;48.778;9.252;2022-07-29T12:57:30;17.50;;;16.70;;
1122;SDS011;548;48.778;9.252;2022-07-29T13:00:05;17.07;;;15.80;;
1122;SDS011;548;48.778;9.252;2022-07-29T13:02:35;17.77;;;16.87;;
1122;SDS011;548;48.778;9.252;2022-07-29T13:05:02;18.63;;;17.63;;
1122;SDS011;548;48.778;9.252;2022-07-29T13:07:30;19.07;;;18.07;;
1122;SDS011;548;48.778;9.252;2022-07-29T13:10:10;18.80;;;17.50;;
1122;SDS011;548;48.778;9.252;2022-07-29T13:15:30;17.17;;;16.37;;
1122;SDS011;548;48.778;9.252;2022-07-29T13:17:57;18.00;;;17.10;;
1122;SDS011;548;48.778;9.252;2022-07-29T13:20:25;19.77;;;18.77;;
1122;SDS011;548;48.778;9.252;2022-07-29T13:22:54;19.07;;;18.00;;
1122;SDS011;548;48.778;9.252;2022-07-29T13:25:25;18.83;;;17.93;;
1122;SDS011;548;48.778;9.252;2022-07-29T13:27:53;20.43;;;19.13;;
1122;SDS011;548;48.778;9.252;2022-07-29T13:30:21;23.17;;;21.97;;
1122;SDS011;548;48.778;9.252;2022-07-29T13:32:49;37.00;;;34.97;;
1122;SDS011;548;48.778;9.252;2022-07-29T13:35:17;36.20;;;34.00;;
1122;SDS011;548;48.778;9.252;2022-07-29T13:37:46;38.03;;;35.83;;
1122;SDS011;548;48.778;9.252;2022-07-29T13:40:13;40.33;;;37.23;;
1122;SDS011;548;48.778;9.252;2022-07-29T13:42:40;43.17;;;39.87;;
1122;SDS011;548;48.778;9.252;2022-07-29T13:45:07;43.07;;;40.40;;
1122;SDS011;548;48.778;9.252;2022-07-29T13:47:35;44.07;;;41.47;;
1122;SDS011;548;48.778;9.252;2022-07-29T13:50:04;45.37;;;42.60;;
1122;SDS011;548;48.778;9.252;2022-07-29T13:52:32;44.13;;;41.50;;
1122;SDS011;548;48.778;9.252;2022-07-29T13:54:59;46.43;;;43.20;;
1122;SDS011;548;48.778;9.252;2022-07-29T13:57:26;46.10;;;42.97;;
1122;SDS011;548;48.778;9.252;2022-07-29T13:59:53;44.60;;;41.70;;
1122;SDS011;548;48.778;9.252;2022-07-29T14:02:20;45.20;;;42.50;;
1122;SDS011;548;48.778;9.252;2022-07-29T14:04:47;44.90;;;42.30;;
1122;SDS011;548;48.778;9.252;2022-07-29T14:07:15;42.70;;;40.40;;
1122;SDS011;548;48.778;9.252;2022-07-29T14:09:42;38.00;;;36.00;;
1122;SDS011;548;48.778;9.252;2022-07-29T14:12:09;32.13;;;30.40;;
1122;SDS011;548;48.778;9.252;2022-07-29T14:14:36;33.00;;;31.30;;
1122;SDS011;548;48.778;9.252;2022-07-29T14:17:02;31.73;;;29.63;;
1122;SDS011;548;48.778;9.252;2022-07-29T14:19:31;31.27;;;29.37;;
1122;SDS011;548;48.778;9.252;2022-07-29T14:22:02;28.20;;;26.47;;
1122;SDS011;548;48.778;9.252;2022-07-29T14:24:30;26.07;;;24.63;;
1122;SDS011;548;48.778;9.252;2022-07-29T14:26:58;24.23;;;22.90;;
1122;SDS011;548;48.778;9.252;2022-07-29T14:29:25;23.33;;;21.90;;
1122;SDS011;548;48.778;9.252;2022-07-29T14:31:52;22.90;;;21.33;;
1122;SDS011;548;48.778;9.252;2022-07-29T14:34:18;22.93;;;21.43;;
1122;SDS011;548;48.778;9.252;2022-07-29T14:36:45;23.33;;;22.07;;
1122;SDS011;548;48.778;9.252;2022-07-29T14:39:12;24.67;;;23.23;;
1122;SDS011;548;48.778;9.252;2022-07-29T14:41:42;27.37;;;25.37;;
1122;SDS011;548;48.778;9.252;2022-07-29T14:44:09;25.93;;;24.43;;
1122;SDS011;548;48.778;9.252;2022-07-29T14:46:39;28.33;;;26.53;;
1122;SDS011;548;48.778;9.252;2022-07-29T14:49:05;24.27;;;22.67;;
1122;SDS011;548;48.778;9.252;2022-07-29T14:51:32;23.03;;;21.70;;
1122;SDS011;548;48.778;9.252;2022-07-29T14:53:59;23.80;;;22.60;;
1122;SDS011;548;48.778;9.252;2022-07-29T14:56:26;22.30;;;21.13;;
1122;SDS011;548;48.778;9.252;2022-07-29T14:58:56;22.83;;;21.60;;
1122;SDS011;548;48.778;9.252;2022-07-29T15:01:23;23.40;;;22.00;;
1122;SDS011;548;48.778;9.252;2022-07-29T15:03:50;23.50;;;22.10;;
1122;SDS011;548;48.778;9.252;2022-07-29T15:06:16;22.03;;;20.57;;
1122;SDS011;548;48.778;9.252;2022-07-29T15:08:43;22.63;;;21.40;;
1122;SDS011;548;48.778;9.252;2022-07-29T15:11:10;21.73;;;20.43;;
1122;SDS011;548;48.778;9.252;2022-07-29T15:13:36;22.27;;;20.87;;
1122;SDS011;548;48.778;9.252;2022-07-29T15:16:05;21.33;;;20.13;;
1122;SDS011;548;48.778;9.252;2022-07-29T15:18:32;23.20;;;21.80;;
1122;SDS011;548;48.778;9.252;2022-07-29T15:20:59;19.90;;;18.63;;
1122;SDS011;548;48.778;9.252;2022-07-29T15:23:27;21.40;;;20.00;;
1122;SDS011;548;48.778;9.252;2022-07-29T15:25:53;21.40;;;20.30;;
1122;SDS011;548;48.778;9.252;2022-07-29T15:28:20;21.57;;;20.33;;
1122;SDS011;548;48.778;9.252;2022-07-29T15:30:47;21.93;;;20.20;;
1122;SDS011;548;48.778;9.252;2022-07-29T15:33:15;22.30;;;21.20;;
1122;SDS011;548;48.778;9.252;2022-07-29T15:35:41;21.80;;;20.40;;
1122;SDS011;548;48.778;9.252;2022-07-29T15:38:08;21.30;;;20.10;;